Time;durP1;ratioP1;P1;durP2;ratioP2;P2;SDS_P1;SDS_P2;PMS_P1;PMS_P2;Temp;Humidity;BMP_temperature;BMP_pressure;BME280_temperature;BME280_humidity;BME280_pressure;Samples;Min_cycle;Max_cycle;Signal;HPM_P1;HPM_P2
2022/12/22 03:28:12;;;;;;;9.05;5.95;;;16.80;51.50;;;;;;4965727;29;20078;-62
2022/12/22 03:30:38;;;;;;;8.32;5.65;;;16.70;51.70;;;;;;4965762;29;20035;-62
2022/12/22 03:33:04;;;;;;;9.05;5.35;;;16.70;52.10;;;;;;4965619;29;20037;-63
2022/12/22 03:35:30;;;;;;;9.50;6.43;;;16.60;52.20;;;;;;4965611;29;20046;-62
2022/12/22 03:37:56;;;;;;;9.13;5.60;;;16.50;52.30;;;;;;4965596;29;20035;-62
2022/12/22 03:40:21;;;;;;;9.77;6.63;;;16.40;52.60;;;;;;4965549;29;20027;-62
2022/12/22 03:48:15;;;;;;;9.82;6.63;;;16.30;52.80;;;;;;4965361;29;20030;-61
2022/12/22 03:50:42;;;;;;;7.30;5.55;;;16.30;52.50;;;;;;4965299;29;20027;-62
2022/12/22 03:53:08;;;;;;;9.95;6.38;;;16.40;52.20;;;;;;4965207;29;20039;-62
2022/12/22 03:55:34;;;;;;;10.05;5.93;;;16.40;52.10;;;;;;4965245;29;20038;-62
2022/12/22 03:57:59;;;;;;;8.32;6.13;;;16.40;52.30;;;;;;4965265;29;20016;-62
2022/12/22 04:00:25;;;;;;;8.07;5.78;;;16.50;52.40;;;;;;4965268;29;20070;-62
2022/12/22 04:02:51;;;;;;;9.30;5.72;;;16.50;52.10;;;;;;4965203;29;20062;-64
2022/12/22 04:05:17;;;;;;;8.13;5.70;;;16.60;51.80;;;;;;4965128;29;20252;-63
2022/12/22 04:07:43;;;;;;;8.00;5.75;;;16.70;51.60;;;;;;4964964;28;20058;-62
2022/12/22 04:12:54;;;;;;;8.43;6.13;;;16.90;51.20;;;;;;4964950;29;20373;-63
2022/12/22 04:15:27;;;;;;;9.23;5.40;;;17.00;51.10;;;;;;4964743;29;20039;-63
2022/12/22 04:17:53;;;;;;;8.80;6.25;;;17.00;51.00;;;;;;4964851;29;20030;-62
2022/12/22 04:20:20;;;;;;;7.15;5.35;;;17.10;50.90;;;;;;4964687;29;20330;-62
2022/12/22 04:22:46;;;;;;;8.82;6.22;;;17.20;51.00;;;;;;4964764;29;20027;-62
2022/12/22 04:25:13;;;;;;;7.75;5.72;;;17.20;50.70;;;;;;4964722;29;20061;-62
2022/12/22 04:27:39;;;;;;;8.15;5.78;;;17.20;50.70;;;;;;4964563;29;20326;-62
2022/12/22 04:30:06;;;;;;;8.00;5.72;;;17.10;50.80;;;;;;4964632;29;20230;-62
2022/12/22 04:32:32;;;;;;;9.15;6.22;;;17.10;51.00;;;;;;4964645;29;20089;-62
2022/12/22 04:34:58;;;;;;;8.00;5.65;;;17.00;51.20;;;;;;4964462;29;20381;-63
2022/12/22 04:37:23;;;;;;;8.55;5.45;;;16.90;51.70;;;;;;4964497;29;20082;-62
2022/12/22 04:39:49;;;;;;;9.90;6.00;;;16.70;51.90;;;;;;4964446;29;20331;-62
2022/12/22 04:42:15;;;;;;;11.32;5.90;;;16.70;51.90;;;;;;4964562;29;20358;-62
2022/12/22 04:44:41;;;;;;;9.15;5.80;;;16.60;52.20;;;;;;4964432;29;20027;-63
2022/12/22 04:47:07;;;;;;;6.95;5.70;;;16.60;52.40;;;;;;4964409;29;20105;-62
2022/12/22 04:49:32;;;;;;;9.48;6.72;;;16.50;52.50;;;;;;4964327;29;20031;-62
2022/12/22 04:51:58;;;;;;;9.80;6.15;;;16.50;52.70;;;;;;4964307;29;20027;-63
2022/12/22 04:54:24;;;;;;;9.10;6.13;;;16.40;52.70;;;;;;4964137;29;20051;-62
2022/12/22 04:56:50;;;;;;;8.82;6.00;;;16.40;52.60;;;;;;4964119;29;20101;-62
2022/12/22 04:59:16;;;;;;;8.30;5.80;;;16.40;52.60;;;;;;4964073;29;20019;-62
2022/12/22 05:01:42;;;;;;;8.77;5.65;;;16.40;52.60;;;;;;4964082;29;20382;-62
2022/12/22 05:04:07;;;;;;;8.68;5.93;;;16.40;52.60;;;;;;4963959;29;20034;-62
2022/12/22 05:06:33;;;;;;;9.00;6.05;;;16.40;52.40;;;;;;4963940;29;20082;-62
2022/12/22 05:08:59;;;;;;;7.30;5.35;;;16.40;52.50;;;;;;4963708;29;20425;-64
2022/12/22 05:11:25;;;;;;;8.30;6.05;;;16.50;52.20;;;;;;4963803;29;20069;-62
2022/12/22 05:13:50;;;;;;;8.07;5.65;;;16.60;52.00;;;;;;4963700;29;20035;-62
2022/12/22 05:16:16;;;;;;;8.75;5.95;;;16.70;51.80;;;;;;4963741;29;20081;-63
2022/12/22 05:18:44;;;;;;;7.85;5.60;;;16.70;51.50;;;;;;4963420;28;20050;-61
2022/12/22 05:21:18;;;;;;;10.13;6.53;;;16.80;51.30;;;;;;4963439;29;20023;-63
2022/12/22 05:23:44;;;;;;;8.38;5.68;;;16.90;51.20;;;;;;4963702;29;20026;-64
2022/12/22 05:26:13;;;;;;;8.75;6.15;;;17.00;50.90;;;;;;4963636;29;20304;-62
2022/12/22 05:28:40;;;;;;;10.02;5.93;;;17.00;50.90;;;;;;4963625;29;20381;-62
2022/12/22 05:31:09;;;;;;;8.60;5.82;;;17.00;51.00;;;;;;4963531;29;20070;-63
2022/12/22 05:33:35;;;;;;;7.60;5.38;;;17.10;51.00;;;;;;4963521;29;20038;-62
2022/12/22 05:36:02;;;;;;;7.13;5.28;;;17.10;51.00;;;;;;4963506;29;20079;-62
2022/12/22 05:38:27;;;;;;;8.57;5.70;;;17.10;50.90;;;;;;4963489;29;20095;-63
2022/12/22 05:40:53;;;;;;;7.97;5.95;;;17.10;51.00;;;;;;4963365;29;20058;-62
2022/12/22 05:43:19;;;;;;;9.43;6.60;;;17.10;50.80;;;;;;4963327;29;20031;-62
2022/12/22 05:45:46;;;;;;;8.88;5.93;;;17.10;51.10;;;;;;4963273;29;20362;-62
2022/12/22 05:48:12;;;;;;;9.75;6.65;;;17.00;51.20;;;;;;4963210;29;20023;-62
2022/12/22 05:50:38;;;;;;;8.73;5.93;;;16.90;51.30;;;;;;4963167;29;20110;-62
2022/12/22 05:53:05;;;;;;;8.85;6.22;;;16.80;51.60;;;;;;4963117;29;20023;-62
2022/12/22 05:55:31;;;;;;;8.02;5.78;;;16.80;51.80;;;;;;4963085;29;20059;-62
2022/12/22 05:58:00;;;;;;;8.65;5.63;;;16.70;51.90;;;;;;4963092;29;20303;-62
2022/12/22 06:00:28;;;;;;;8.23;6.00;;;16.70;52.00;;;;;;4963102;29;20051;-62
2022/12/22 06:02:54;;;;;;;8.60;5.70;;;16.60;52.20;;;;;;4963034;29;20023;-62
2022/12/22 06:05:20;;;;;;;8.35;5.75;;;16.50;52.30;;;;;;4962995;29;20346;-65
2022/12/22 06:07:46;;;;;;;9.68;6.13;;;16.50;52.60;;;;;;4963033;29;20073;-62
2022/12/22 06:10:12;;;;;;;10.10;6.60;;;16.40;52.60;;;;;;4962855;29;20106;-62
2022/12/22 06:12:38;;;;;;;10.68;7.13;;;16.40;52.60;;;;;;4962872;29;20029;-62
2022/12/22 06:15:06;;;;;;;9.65;6.07;;;16.40;52.60;;;;;;4963019;29;20034;-62
2022/12/22 06:17:32;;;;;;;8.73;6.45;;;16.40;52.70;;;;;;4962855;29;20023;-63
2022/12/22 06:19:57;;;;;;;8.57;6.05;;;16.40;52.60;;;;;;4962893;29;20030;-62
2022/12/22 06:22:23;;;;;;;9.25;6.25;;;16.40;52.40;;;;;;4962829;29;20069;-62
2022/12/22 06:24:49;;;;;;;8.50;6.25;;;16.50;52.20;;;;;;4962813;29;20051;-62
2022/12/22 06:27:15;;;;;;;8.65;6.25;;;16.70;51.90;;;;;;4962765;29;20023;-62
2022/12/22 06:29:41;;;;;;;8.00;5.40;;;16.70;51.60;;;;;;4962770;29;20058;-62
2022/12/22 06:32:06;;;;;;;8.60;6.28;;;16.80;51.30;;;;;;4964511;28;20046;-62
2022/12/22 06:34:32;;;;;;;8.57;6.05;;;16.90;51.20;;;;;;4966488;29;20035;-62
2022/12/22 06:36:58;;;;;;;9.50;6.43;;;17.00;51.00;;;;;;4966626;29;20019;-62
2022/12/22 06:39:24;;;;;;;8.82;5.63;;;17.00;50.80;;;;;;4966561;29;20242;-63
2022/12/22 06:44:34;;;;;;;7.53;5.22;;;17.10;50.90;;;;;;4966498;29;20266;-62
2022/12/22 06:46:59;;;;;;;9.55;6.60;;;17.10;51.00;;;;;;4966487;29;20035;-61
2022/12/22 06:49:25;;;;;;;8.43;5.63;;;17.20;51.40;;;;;;4966402;29;20027;-62
2022/12/22 06:51:51;;;;;;;7.88;5.50;;;17.20;50.80;;;;;;4966291;29;20050;-62
2022/12/22 06:54:17;;;;;;;8.27;6.22;;;17.20;50.80;;;;;;4966279;29;20031;-61
2022/12/22 06:56:43;;;;;;;7.93;5.78;;;17.20;50.90;;;;;;4966260;29;20041;-63
2022/12/22 06:59:09;;;;;;;9.45;6.68;;;17.10;51.00;;;;;;4966279;29;20019;-62
2022/12/22 07:01:34;;;;;;;7.97;6.03;;;17.10;51.20;;;;;;4964896;29;20267;-62
2022/12/22 07:04:00;;;;;;;10.40;6.07;;;17.00;51.40;;;;;;4966204;29;20098;-62
2022/12/22 07:06:26;;;;;;;10.15;6.68;;;16.90;51.40;;;;;;4966184;29;20042;-62
2022/12/22 07:08:52;;;;;;;7.47;5.55;;;16.90;51.60;;;;;;4965802;29;20126;-63
2022/12/22 07:11:18;;;;;;;8.50;6.40;;;16.80;51.80;;;;;;4966021;29;20051;-62
2022/12/22 07:13:44;;;;;;;9.23;6.43;;;16.70;51.90;;;;;;4965829;29;20046;-62
2022/12/22 07:16:10;;;;;;;10.18;5.63;;;16.70;52.00;;;;;;4965932;29;20035;-62
2022/12/22 07:18:38;;;;;;;8.82;5.90;;;16.60;52.20;;;;;;4965799;29;20030;-62
2022/12/22 07:21:07;;;;;;;9.60;6.38;;;16.60;52.30;;;;;;4965812;29;20023;-63
2022/12/22 07:23:33;;;;;;;8.55;6.00;;;16.50;52.50;;;;;;4965792;29;20327;-62
2022/12/22 07:25:59;;;;;;;8.77;5.82;;;16.40;52.60;;;;;;4965664;29;20027;-62
2022/12/22 07:28:25;;;;;;;8.63;5.65;;;16.40;52.50;;;;;;4948368;29;20038;-62
2022/12/22 07:30:52;;;;;;;7.30;5.07;;;16.40;52.60;;;;;;4965624;29;20034;-61
2022/12/22 07:33:19;;;;;;;10.38;6.75;;;16.40;52.50;;;;;;4965530;29;20038;-62
2022/12/22 07:35:45;;;;;;;8.90;6.28;;;16.40;52.40;;;;;;4965468;29;20019;-62
2022/12/22 07:38:11;;;;;;;8.50;5.90;;;16.50;52.30;;;;;;4965484;29;20323;-62
2022/12/22 07:40:37;;;;;;;8.77;6.38;;;16.60;52.00;;;;;;4965481;29;20035;-62
2022/12/22 07:43:03;;;;;;;9.95;6.28;;;16.60;51.90;;;;;;4963692;28;20356;-62
2022/12/22 07:45:28;;;;;;;9.20;6.47;;;16.70;51.60;;;;;;4965417;29;20236;-61
2022/12/22 07:50:23;;;;;;;7.55;5.70;;;16.80;51.50;;;;;;4965350;29;20085;-63
2022/12/22 07:50:47;;;;;;;8.40;6.43;;;17.00;51.20;;;;;;4965218;29;20039;-61
2022/12/22 07:53:13;;;;;;;8.10;6.03;;;17.10;51.00;;;;;;4965129;29;20250;-62
2022/12/22 07:55:38;;;;;;;8.40;6.10;;;17.20;50.80;;;;;;4965230;29;20336;-62
2022/12/22 07:58:04;;;;;;;8.00;5.90;;;17.20;50.70;;;;;;4965182;29;20196;-62
2022/12/22 08:00:30;;;;;;;8.75;6.10;;;17.20;50.70;;;;;;4965193;29;20023;-63
2022/12/22 08:02:56;;;;;;;8.73;5.78;;;17.20;50.80;;;;;;4965084;29;20065;-61
2022/12/22 08:05:24;;;;;;;9.18;6.40;;;17.10;50.80;;;;;;4964966;29;20292;-62
2022/12/22 08:07:51;;;;;;;9.35;6.32;;;17.00;51.00;;;;;;4964997;29;20215;-62
2022/12/22 08:10:18;;;;;;;7.32;5.57;;;16.90;51.30;;;;;;4964797;29;20351;-66
2022/12/22 08:12:44;;;;;;;9.07;6.05;;;16.80;51.50;;;;;;4964696;29;20094;-62
2022/12/22 08:15:11;;;;;;;7.68;6.38;;;16.70;51.80;;;;;;4964872;29;20015;-61
2022/12/22 08:17:37;;;;;;;8.93;6.70;;;16.70;51.90;;;;;;4964812;29;20038;-62
2022/12/22 08:20:04;;;;;;;8.82;5.80;;;16.60;52.00;;;;;;4964751;29;20300;-62
2022/12/22 08:22:31;;;;;;;8.98;6.00;;;16.60;52.20;;;;;;4964744;29;20019;-62
2022/12/22 08:24:57;;;;;;;8.50;6.25;;;16.50;52.30;;;;;;4964621;29;20023;-62
2022/12/22 08:27:41;;;;;;;9.40;6.22;;;16.50;52.40;;;;;;4963564;29;20392;-62
2022/12/22 08:30:08;;;;;;;10.27;6.50;;;16.40;52.60;;;;;;4964742;29;20058;-62
2022/12/22 08:32:37;;;;;;;8.70;6.22;;;16.40;52.50;;;;;;4964572;29;20601;-62
2022/12/22 08:35:08;;;;;;;9.25;6.20;;;16.40;52.50;;;;;;4964517;29;20023;-61
2022/12/22 08:37:40;;;;;;;8.32;5.65;;;16.40;52.30;;;;;;4964482;29;20038;-62
2022/12/22 08:40:10;;;;;;;8.18;5.75;;;16.40;52.30;;;;;;4964448;29;20022;-61
2022/12/22 08:42:36;;;;;;;9.27;6.25;;;16.50;52.40;;;;;;4964431;29;20282;-61
2022/12/22 08:45:03;;;;;;;8.65;5.50;;;16.40;52.40;;;;;;4964290;29;20034;-62
2022/12/22 08:47:28;;;;;;;8.60;5.88;;;16.50;52.20;;;;;;4964334;29;20027;-63
2022/12/22 08:49:54;;;;;;;8.20;6.15;;;16.60;52.00;;;;;;4964196;29;20046;-62
2022/12/22 08:52:20;;;;;;;8.95;5.97;;;16.70;52.30;;;;;;4964202;29;20076;-61
2022/12/22 08:54:46;;;;;;;11.32;7.20;;;16.80;51.50;;;;;;4963127;28;20022;-62
2022/12/22 08:57:12;;;;;;;8.30;5.60;;;16.90;51.20;;;;;;4964111;29;20047;-62
2022/12/22 08:59:37;;;;;;;8.40;5.85;;;17.00;51.00;;;;;;4964016;29;20019;-62
2022/12/22 09:02:03;;;;;;;8.15;5.57;;;17.10;50.90;;;;;;4963974;29;20034;-62
2022/12/22 09:04:30;;;;;;;8.77;6.13;;;17.10;50.80;;;;;;4963978;29;20066;-61
2022/12/22 09:06:56;;;;;;;10.10;6.38;;;17.10;51.40;;;;;;4963972;29;20255;-63
2022/12/22 09:09:22;;;;;;;10.07;6.10;;;17.20;50.80;;;;;;4963818;29;20071;-61
2022/12/22 09:11:49;;;;;;;9.20;5.97;;;17.20;51.40;;;;;;4963831;29;20043;-62
2022/12/22 09:14:15;;;;;;;9.65;6.32;;;17.20;50.80;;;;;;4963768;29;20050;-62
2022/12/22 09:16:41;;;;;;;9.15;6.70;;;17.30;50.70;;;;;;4963453;29;20061;-62
2022/12/22 09:19:07;;;;;;;8.63;6.05;;;17.30;50.60;;;;;;4963741;29;20016;-62
2022/12/22 09:21:35;;;;;;;8.45;6.10;;;17.20;50.80;;;;;;4963536;29;20070;-63
2022/12/22 09:24:03;;;;;;;7.95;5.70;;;17.10;51.10;;;;;;4963616;29;20054;-63
2022/12/22 09:26:29;;;;;;;7.70;5.67;;;17.00;51.30;;;;;;4963624;29;20031;-62
2022/12/22 09:28:56;;;;;;;8.50;6.28;;;16.90;51.50;;;;;;4963392;29;20035;-62
2022/12/22 09:31:23;;;;;;;8.82;5.68;;;16.80;51.80;;;;;;4963294;29;20019;-62
2022/12/22 09:33:50;;;;;;;8.57;6.22;;;16.70;52.00;;;;;;4963286;29;20035;-62
2022/12/22 09:36:19;;;;;;;9.05;6.22;;;16.70;52.10;;;;;;4963317;29;20058;-62
2022/12/22 09:38:45;;;;;;;8.40;5.90;;;16.60;52.10;;;;;;4963346;29;20031;-62
2022/12/22 09:41:38;;;;;;;7.38;5.70;;;16.50;52.10;;;;;;4963399;29;20062;-62
2022/12/22 09:44:12;;;;;;;8.23;5.90;;;16.60;52.10;;;;;;4963342;29;20255;-61
2022/12/22 09:46:38;;;;;;;8.82;6.75;;;16.50;52.30;;;;;;4963304;29;20370;-62
2022/12/22 09:49:05;;;;;;;7.90;5.63;;;16.50;52.40;;;;;;4963198;29;20334;-62
2022/12/22 09:51:40;;;;;;;9.20;6.05;;;16.50;52.30;;;;;;4963237;29;20023;-62
2022/12/22 09:54:10;;;;;;;8.60;5.70;;;16.50;52.50;;;;;;4963130;29;20062;-63
2022/12/22 09:56:36;;;;;;;8.70;6.38;;;16.50;52.60;;;;;;4963251;29;20027;-62
2022/12/22 09:59:11;;;;;;;9.18;6.28;;;16.50;52.40;;;;;;4963130;29;20086;-61
2022/12/22 10:01:43;;;;;;;9.10;6.20;;;16.50;52.40;;;;;;4963122;29;20031;-62
2022/12/22 10:04:27;;;;;;;8.32;5.65;;;16.50;52.40;;;;;;4963079;29;20094;-62
2022/12/22 10:07:14;;;;;;;9.35;5.88;;;16.60;52.20;;;;;;4962810;28;20379;-62
2022/12/22 10:09:40;;;;;;;7.35;5.03;;;16.80;51.70;;;;;;4962816;29;20059;-62
2022/12/22 10:12:11;;;;;;;7.82;5.45;;;16.90;51.30;;;;;;4962872;29;20073;-62
2022/12/22 10:14:40;;;;;;;7.85;5.28;;;17.10;51.20;;;;;;4962906;29;20027;-61
2022/12/22 10:17:28;;;;;;;8.07;5.72;;;17.10;51.10;;;;;;4962939;29;20550;-62
2022/12/22 10:20:09;;;;;;;8.32;6.10;;;17.20;50.80;;;;;;4962959;29;20218;-63
2022/12/22 10:22:55;;;;;;;9.43;6.47;;;17.30;50.80;;;;;;4962931;29;20512;-62
2022/12/22 10:25:36;;;;;;;7.85;5.55;;;17.20;50.80;;;;;;4962673;29;20023;-63
2022/12/22 10:28:16;;;;;;;8.52;5.88;;;17.10;50.90;;;;;;4962855;29;20299;-62
2022/12/22 10:30:42;;;;;;;9.02;6.38;;;17.10;51.00;;;;;;4962851;29;20063;-62
2022/12/22 10:33:11;;;;;;;9.25;6.25;;;17.20;51.10;;;;;;4962826;29;20035;-62
2022/12/22 10:35:42;;;;;;;;;;;17.10;51.10;;;;;;4963223;29;20043;-62
2022/12/22 10:38:27;;;;;;;7.88;5.85;;;17.10;50.80;;;;;;4962730;29;19910;-62
2022/12/22 10:41:03;;;;;;;8.10;5.65;;;17.20;50.80;;;;;;4962824;29;20034;-61
2022/12/22 10:43:36;;;;;;;8.90;6.03;;;17.20;50.80;;;;;;4962656;29;20027;-62
2022/12/22 10:46:03;;;;;;;7.75;6.03;;;17.20;50.70;;;;;;4962606;29;20063;-64
2022/12/22 10:48:39;;;;;;;9.35;6.65;;;17.20;50.70;;;;;;4962600;29;20039;-61
2022/12/22 10:51:08;;;;;;;8.25;5.47;;;17.30;50.60;;;;;;4962627;29;20062;-62
2022/12/22 10:53:49;;;;;;;7.22;5.78;;;17.30;50.50;;;;;;4962520;29;20215;-63
2022/12/22 10:56:41;;;;;;;7.97;5.57;;;17.30;50.60;;;;;;4962593;29;20031;-62
2022/12/22 10:59:19;;;;;;;9.00;5.90;;;17.20;50.60;;;;;;4961386;29;20078;-61
2022/12/22 11:01:45;;;;;;;8.88;5.85;;;17.20;50.70;;;;;;4962529;29;20027;-62
2022/12/22 11:04:25;;;;;;;7.85;5.72;;;17.20;50.80;;;;;;4962548;29;20127;-62
2022/12/22 11:06:58;;;;;;;8.57;6.38;;;17.10;50.80;;;;;;4962367;29;20031;-62
2022/12/22 11:09:25;;;;;;;9.85;6.47;;;17.10;50.90;;;;;;4962426;29;20082;-62
2022/12/22 11:12:21;;;;;;;9.48;6.40;;;17.00;51.10;;;;;;4962472;29;20031;-62
2022/12/22 11:15:15;;;;;;;9.07;6.53;;;17.00;51.30;;;;;;4962251;29;20035;-62
2022/12/22 11:18:13;;;;;;;9.10;6.38;;;16.90;51.40;;;;;;4963412;28;20354;-62
2022/12/22 11:21:00;;;;;;;7.93;5.78;;;16.80;51.40;;;;;;4966085;29;20035;-62
2022/12/22 11:23:42;;;;;;;8.20;5.38;;;16.90;51.50;;;;;;4965914;29;20026;-63
2022/12/22 11:26:35;;;;;;;7.10;5.50;;;16.80;51.50;;;;;;4965847;29;20050;-62
2022/12/22 11:29:03;;;;;;;7.88;5.35;;;16.80;51.60;;;;;;4965852;29;20086;-62
2022/12/22 11:32:01;;;;;;;8.93;6.00;;;16.80;51.70;;;;;;4965551;29;20069;-61
2022/12/22 11:34:56;;;;;;;9.47;5.83;;;16.80;51.60;;;;;;4965229;29;20135;-61
2022/12/22 11:37:43;;;;;;;7.32;5.30;;;16.90;51.40;;;;;;4965687;29;20030;-62
2022/12/22 11:40:15;;;;;;;7.13;5.20;;;17.00;51.30;;;;;;4965443;29;20032;-62
2022/12/22 11:43:10;;;;;;;9.77;6.65;;;17.00;51.20;;;;;;4965512;29;20019;-62
2022/12/22 11:45:41;;;;;;;8.48;5.45;;;17.10;51.00;;;;;;4965500;29;20235;-63
2022/12/22 11:48:25;;;;;;;9.00;5.70;;;17.10;51.00;;;;;;4965403;29;20378;-62
2022/12/22 11:51:10;;;;;;;8.32;5.60;;;17.10;51.00;;;;;;4965312;29;20019;-63
2022/12/22 11:54:05;;;;;;;7.63;5.55;;;17.10;51.00;;;;;;4965273;29;20244;-62
2022/12/22 11:56:41;;;;;;;8.15;6.07;;;17.20;51.00;;;;;;4965305;29;20314;-62
2022/12/22 11:59:13;;;;;;;7.35;5.75;;;17.20;50.90;;;;;;4965186;29;20027;-61
2022/12/22 12:02:03;;;;;;;9.05;5.90;;;17.30;50.90;;;;;;4965241;29;20047;-62
2022/12/22 12:04:41;;;;;;;9.60;6.60;;;17.30;50.80;;;;;;4965266;29;20019;-62
2022/12/22 12:07:30;;;;;;;8.47;6.20;;;17.20;51.10;;;;;;4965154;29;20048;-63
2022/12/22 12:10:20;;;;;;;6.93;6.00;;;17.10;51.30;;;;;;4964969;29;20051;-64
2022/12/22 12:13:12;;;;;;;8.88;6.38;;;17.00;51.50;;;;;;4964792;29;20078;-61
2022/12/22 12:15:45;;;;;;;8.07;5.40;;;16.90;51.80;;;;;;4964605;29;20038;-61
2022/12/22 12:18:32;;;;;;;9.45;6.18;;;16.80;52.50;;;;;;4964869;29;20019;-62
2022/12/22 12:21:35;;;;;;;8.38;5.80;;;16.70;51.90;;;;;;4964813;29;20027;-62
2022/12/22 12:24:20;;;;;;;8.80;6.22;;;16.70;52.00;;;;;;4964808;29;20033;-62
2022/12/22 12:27:10;;;;;;;7.60;5.65;;;16.70;51.90;;;;;;4964729;29;20095;-62
2022/12/22 12:29:39;;;;;;;8.77;6.10;;;16.70;52.00;;;;;;4964617;28;20030;-61
2022/12/22 12:32:14;;;;;;;9.70;6.82;;;16.70;52.00;;;;;;4964591;29;20031;-62
2022/12/22 12:34:48;;;;;;;8.48;5.95;;;16.70;52.10;;;;;;4964481;29;20034;-62
2022/12/22 12:37:21;;;;;;;8.70;6.03;;;16.70;52.10;;;;;;4964544;29;20081;-62
2022/12/22 12:39:56;;;;;;;8.65;6.22;;;16.70;52.10;;;;;;4964484;29;20027;-62
2022/12/22 12:42:38;;;;;;;8.52;6.32;;;16.70;52.20;;;;;;4964380;29;20326;-62
2022/12/22 12:45:44;;;;;;;8.40;5.63;;;16.70;52.30;;;;;;4964421;29;20223;-62
2022/12/22 12:48:36;;;;;;;8.57;5.88;;;16.60;52.20;;;;;;4964419;29;20031;-61
2022/12/22 12:51:40;;;;;;;8.93;6.20;;;16.60;52.30;;;;;;4963312;29;20119;-61
2022/12/22 12:54:46;;;;;;;8.40;5.72;;;16.60;52.20;;;;;;4964333;29;20349;-64
2022/12/22 12:57:28;;;;;;;10.70;6.57;;;16.70;51.90;;;;;;4942676;29;20098;-61
2022/12/22 12:59:57;;;;;;;7.32;5.80;;;16.80;51.70;;;;;;4962844;29;20043;-62
2022/12/22 13:02:26;;;;;;;8.23;6.20;;;16.90;51.60;;;;;;4964080;29;20046;-62
2022/12/22 13:05:12;;;;;;;9.65;6.30;;;16.90;51.60;;;;;;4964034;29;20055;-62
2022/12/22 13:08:04;;;;;;;8.55;6.28;;;17.00;51.50;;;;;;4963831;29;20450;-63
2022/12/22 13:10:32;;;;;;;8.25;6.13;;;17.00;51.50;;;;;;4963645;29;20058;-63
2022/12/22 13:12:58;;;;;;;7.80;6.20;;;17.00;51.70;;;;;;4963796;29;20123;-64
2022/12/22 13:15:36;;;;;;;8.88;6.05;;;17.00;51.60;;;;;;4963822;29;20031;-64
2022/12/22 13:18:07;;;;;;;8.57;6.27;;;17.00;51.50;;;;;;4963842;29;20027;-63
2022/12/22 13:20:34;;;;;;;9.57;5.90;;;17.00;51.50;;;;;;4963785;29;20069;-63
2022/12/22 13:23:09;;;;;;;7.68;5.38;;;17.00;51.70;;;;;;4963709;29;20338;-63
2022/12/22 13:25:48;;;;;;;8.45;6.05;;;16.80;51.80;;;;;;4963740;29;20050;-63
2022/12/22 13:28:16;;;;;;;9.30;6.50;;;16.80;52.10;;;;;;4963647;29;20223;-64
2022/12/22 13:30:52;;;;;;;8.10;5.63;;;16.70;52.20;;;;;;4963627;29;20031;-64
2022/12/22 13:33:22;;;;;;;8.68;6.20;;;16.70;52.20;;;;;;4963606;29;20019;-61
2022/12/22 13:35:49;;;;;;;7.80;5.90;;;16.70;52.40;;;;;;4963586;29;20315;-63
2022/12/22 13:38:34;;;;;;;8.25;6.20;;;16.60;52.40;;;;;;4963352;29;20054;-63
2022/12/22 13:41:19;;;;;;;8.18;6.05;;;16.60;52.30;;;;;;4963017;28;20110;-63
2022/12/22 13:43:52;;;;;;;9.05;6.13;;;16.60;52.40;;;;;;4963425;29;20051;-63
2022/12/22 13:46:18;;;;;;;8.02;5.95;;;16.60;52.40;;;;;;4963299;29;20184;-63
2022/12/22 13:48:47;;;;;;;7.55;5.30;;;16.60;52.40;;;;;;4963259;29;20030;-63
2022/12/22 13:51:23;;;;;;;7.72;5.75;;;16.60;52.40;;;;;;4963246;29;20043;-63
2022/12/22 13:53:53;;;;;;;7.93;5.47;;;16.60;52.30;;;;;;4963072;29;20053;-63
2022/12/22 13:56:21;;;;;;;8.48;5.93;;;16.60;52.30;;;;;;4963105;29;20057;-63
2022/12/22 13:58:57;;;;;;;7.50;5.63;;;16.60;52.20;;;;;;4963085;29;20312;-63
2022/12/22 14:01:23;;;;;;;8.77;6.18;;;16.60;52.20;;;;;;4963149;29;20026;-61
2022/12/22 14:04:01;;;;;;;8.30;5.85;;;16.60;52.20;;;;;;4963046;29;20038;-63
2022/12/22 14:06:31;;;;;;;8.43;5.97;;;16.60;52.20;;;;;;4963155;29;20329;-63
2022/12/22 14:09:19;;;;;;;8.80;6.13;;;16.60;52.20;;;;;;4962997;29;20055;-63
2022/12/22 14:11:47;;;;;;;;;;;16.60;52.20;;;;;;4963349;29;20105;-64
2022/12/22 14:14:28;;;;;;;6.97;5.28;;;16.70;52.80;;;;;;4962967;28;19940;-63
2022/12/22 14:16:59;;;;;;;8.70;5.72;;;16.70;52.00;;;;;;4963073;29;20086;-63
2022/12/22 14:19:30;;;;;;;8.88;6.10;;;16.80;51.80;;;;;;4963034;29;20027;-63
2022/12/22 14:22:07;;;;;;;7.70;5.93;;;16.90;51.60;;;;;;4963000;29;20028;-63
2022/12/22 14:24:43;;;;;;;9.30;6.28;;;17.00;51.60;;;;;;4962912;29;20035;-63
2022/12/22 14:27:36;;;;;;;9.15;6.28;;;17.00;52.40;;;;;;4962957;29;20027;-64
2022/12/22 14:30:05;;;;;;;8.10;6.03;;;17.00;51.70;;;;;;4962483;29;20062;-63
2022/12/22 14:32:36;;;;;;;7.40;5.40;;;17.00;51.80;;;;;;4962776;29;20027;-64
2022/12/22 14:35:03;;;;;;;8.52;6.03;;;17.00;51.70;;;;;;4962712;29;20102;-63
2022/12/22 14:37:29;;;;;;;8.18;5.75;;;17.00;51.80;;;;;;4962657;29;20082;-63
2022/12/22 14:39:55;;;;;;;9.10;6.20;;;17.00;51.60;;;;;;4962809;29;20027;-64
2022/12/22 14:42:22;;;;;;;8.48;5.65;;;17.10;51.40;;;;;;4962627;29;20034;-63
2022/12/22 14:44:48;;;;;;;8.32;6.22;;;17.10;51.30;;;;;;4962703;29;20042;-63
2022/12/22 14:47:23;;;;;;;9.13;6.10;;;17.00;51.50;;;;;;4962723;29;20035;-63
2022/12/22 14:50:15;;;;;;;9.43;6.53;;;16.90;51.80;;;;;;4962878;29;20287;-63
2022/12/22 14:52:50;;;;;;;8.82;6.22;;;16.80;52.00;;;;;;4963681;28;20330;-63
2022/12/22 14:55:24;;;;;;;9.02;5.80;;;16.70;52.10;;;;;;4966524;29;20027;-64
2022/12/22 14:58:11;;;;;;;10.15;6.05;;;16.70;52.50;;;;;;4966422;29;20026;-64
2022/12/22 15:00:45;;;;;;;9.20;6.68;;;16.60;52.50;;;;;;4966262;29;20027;-64
2022/12/22 15:03:33;;;;;;;9.00;5.93;;;16.60;52.50;;;;;;4966235;29;20031;-64
2022/12/22 15:06:27;;;;;;;8.55;6.13;;;16.60;52.70;;;;;;4966257;29;20055;-63
2022/12/22 15:09:12;;;;;;;8.07;5.93;;;16.50;52.60;;;;;;4965940;29;20069;-63
2022/12/22 15:11:53;;;;;;;9.23;6.05;;;16.60;52.50;;;;;;4966188;29;20031;-63
2022/12/22 15:14:25;;;;;;;9.07;6.50;;;16.60;52.50;;;;;;4965950;29;20034;-63
2022/12/22 15:16:55;;;;;;;8.10;5.82;;;16.60;52.60;;;;;;4966188;29;20023;-63
2022/12/22 15:19:21;;;;;;;7.72;5.85;;;16.60;52.40;;;;;;4965954;29;20031;-64
2022/12/22 15:21:49;;;;;;;8.38;5.78;;;16.60;52.30;;;;;;4965771;29;20390;-64
2022/12/22 15:24:16;;;;;;;8.38;5.97;;;16.60;52.30;;;;;;4965922;29;20031;-64
2022/12/22 15:26:43;;;;;;;9.80;6.55;;;16.60;52.40;;;;;;4965741;29;20339;-64
2022/12/22 15:29:09;;;;;;;10.45;6.47;;;16.60;52.40;;;;;;4965769;29;20061;-63
2022/12/22 15:31:37;;;;;;;8.95;5.90;;;16.70;52.20;;;;;;4965495;29;20066;-63
2022/12/22 15:34:09;;;;;;;9.85;6.43;;;16.70;52.10;;;;;;4965600;29;20234;-64
2022/12/22 15:36:35;;;;;;;7.95;5.57;;;16.80;51.90;;;;;;4965697;29;20074;-63
2022/12/22 15:39:01;;;;;;;8.95;5.85;;;16.90;51.70;;;;;;4965610;29;20027;-63
2022/12/22 15:41:27;;;;;;;9.20;6.30;;;16.90;51.50;;;;;;4965652;29;20031;-64
2022/12/22 15:43:53;;;;;;;7.38;5.57;;;17.00;51.50;;;;;;4965556;29;20214;-65
2022/12/22 15:46:20;;;;;;;9.85;6.80;;;17.00;51.50;;;;;;4965562;29;20035;-65
2022/12/22 15:48:49;;;;;;;10.30;6.30;;;17.00;51.60;;;;;;4965515;29;20019;-64
2022/12/22 15:51:23;;;;;;;;;;;17.00;51.60;;;;;;4965849;29;20105;-63
2022/12/22 15:53:50;;;;;;;8.35;5.93;;;17.00;51.60;;;;;;4965376;29;19915;-63
2022/12/22 15:56:22;;;;;;;8.38;6.30;;;17.00;51.80;;;;;;4965267;29;20019;-64
2022/12/22 15:58:48;;;;;;;9.38;5.90;;;17.00;51.60;;;;;;4965290;29;20323;-64
2022/12/22 16:01:15;;;;;;;6.68;5.32;;;17.00;51.70;;;;;;4965115;29;20350;-63
2022/12/22 16:03:40;;;;;;;10.38;6.22;;;16.90;51.90;;;;;;4964746;28;20097;-63
2022/12/22 16:06:12;;;;;;;8.85;6.55;;;16.80;52.10;;;;;;4964947;29;20327;-64
2022/12/22 16:08:40;;;;;;;8.75;6.25;;;16.80;52.30;;;;;;4964955;29;20051;-64
2022/12/22 16:11:07;;;;;;;8.98;6.25;;;16.70;52.30;;;;;;4965097;29;20473;-64
2022/12/22 16:13:35;;;;;;;8.73;6.18;;;16.60;52.50;;;;;;4964939;29;20405;-64
2022/12/22 16:16:02;;;;;;;10.35;6.38;;;16.60;52.60;;;;;;4964919;29;20022;-64
2022/12/22 16:18:27;;;;;;;7.82;6.07;;;16.60;52.60;;;;;;4964817;29;20031;-65
2022/12/22 16:20:54;;;;;;;8.23;6.28;;;16.50;52.60;;;;;;4964912;29;20362;-64
2022/12/22 16:23:24;;;;;;;9.27;6.95;;;16.50;52.80;;;;;;4964888;29;20023;-63
2022/12/22 16:25:51;;;;;;;9.43;6.10;;;16.50;52.80;;;;;;4964876;29;20034;-65
2022/12/22 16:28:20;;;;;;;8.60;6.05;;;16.50;52.90;;;;;;4964739;29;20219;-64
2022/12/22 16:30:47;;;;;;;9.43;6.45;;;16.50;52.80;;;;;;4964830;29;20027;-63
2022/12/22 16:33:14;;;;;;;9.82;6.78;;;16.50;52.70;;;;;;4964601;29;20079;-63
2022/12/22 16:35:40;;;;;;;9.52;6.90;;;16.50;52.60;;;;;;4964635;29;20023;-63
2022/12/22 16:38:06;;;;;;;7.78;5.80;;;16.50;52.40;;;;;;4964594;29;20038;-63
2022/12/22 16:40:38;;;;;;;10.15;6.40;;;16.60;52.50;;;;;;4964510;29;20043;-64
2022/12/22 16:43:12;;;;;;;10.02;6.20;;;16.50;52.40;;;;;;4964426;29;20050;-64
2022/12/22 16:45:43;;;;;;;9.80;6.38;;;16.60;52.40;;;;;;4964445;29;20382;-65
2022/12/22 16:48:12;;;;;;;10.32;6.22;;;16.60;52.30;;;;;;4964435;29;20110;-64